sensor_id;sensor_type;location;lat;lon;timestamp;temperature;humidity
18444;DHT22;9350;53.176;8.194;2022-08-07T00:01:13;14.60;99.90
18444;DHT22;9350;53.176;8.194;2022-08-07T00:03:40;14.20;99.90
18444;DHT22;9350;53.176;8.194;2022-08-07T00:06:07;14.20;99.90
18444;DHT22;9350;53.176;8.194;2022-08-07T00:08:39;14.20;99.90
18444;DHT22;9350;53.176;8.194;2022-08-07T00:11:06;14.10;99.90
18444;DHT22;9350;53.176;8.194;2022-08-07T00:13:34;14.10;99.90
18444;DHT22;9350;53.176;8.194;2022-08-07T00:16:02;14.10;99.90
18444;DHT22;9350;53.176;8.194;2022-08-07T00:18:30;14.00;99.90
18444;DHT22;9350;53.176;8.194;2022-08-07T00:21:00;14.10;99.90
18444;DHT22;9350;53.176;8.194;2022-08-07T00:27:23;14.00;99.90
18444;DHT22;9350;53.176;8.194;2022-08-07T00:29:58;13.90;99.90
18444;DHT22;9350;53.176;8.194;2022-08-07T00:32:27;14.00;99.90
18444;DHT22;9350;53.176;8.194;2022-08-07T00:34:57;14.00;99.90
18444;DHT22;9350;53.176;8.194;2022-08-07T00:37:28;13.90;99.90
18444;DHT22;9350;53.176;8.194;2022-08-07T00:40:22;13.90;99.90
18444;DHT22;9350;53.176;8.194;2022-08-07T00:42:53;13.90;99.90
18444;DHT22;9350;53.176;8.194;2022-08-07T00:45:23;13.80;99.90
18444;DHT22;9350;53.176;8.194;2022-08-07T00:47:54;13.80;99.90
18444;DHT22;9350;53.176;8.194;2022-08-07T00:50:28;13.80;99.90
18444;DHT22;9350;53.176;8.194;2022-08-07T00:52:55;13.80;99.90
18444;DHT22;9350;53.176;8.194;2022-08-07T00:55:27;13.80;99.90
18444;DHT22;9350;53.176;8.194;2022-08-07T00:58:00;13.80;99.90
18444;DHT22;9350;53.176;8.194;2022-08-07T01:07:38;13.70;99.90
18444;DHT22;9350;53.176;8.194;2022-08-07T01:11:12;13.70;99.90
18444;DHT22;9350;53.176;8.194;2022-08-07T01:14:19;13.70;99.90
18444;DHT22;9350;53.176;8.194;2022-08-07T01:17:40;13.60;99.90
18444;DHT22;9350;53.176;8.194;2022-08-07T01:23:51;13.60;99.90
18444;DHT22;9350;53.176;8.194;2022-08-07T01:26:24;13.50;99.90
18444;DHT22;9350;53.176;8.194;2022-08-07T01:28:52;13.50;99.90
18444;DHT22;9350;53.176;8.194;2022-08-07T01:31:21;13.50;99.90
18444;DHT22;9350;53.176;8.194;2022-08-07T01:33:52;13.50;99.90
18444;DHT22;9350;53.176;8.194;2022-08-07T01:36:19;13.50;99.90
18444;DHT22;9350;53.176;8.194;2022-08-07T01:38:46;13.40;99.90
18444;DHT22;9350;53.176;8.194;2022-08-07T01:41:16;13.50;99.90
18444;DHT22;9350;53.176;8.194;2022-08-07T01:43:44;13.50;99.90
18444;DHT22;9350;53.176;8.194;2022-08-07T01:46:13;13.40;99.90
18444;DHT22;9350;53.176;8.194;2022-08-07T01:52:13;13.40;99.90
18444;DHT22;9350;53.176;8.194;2022-08-07T01:54:41;13.80;99.90
18444;DHT22;9350;53.176;8.194;2022-08-07T01:57:45;13.30;99.90
18444;DHT22;9350;53.176;8.194;2022-08-07T02:08:09;13.40;99.90
18444;DHT22;9350;53.176;8.194;2022-08-07T02:14:11;13.30;99.90
18444;DHT22;9350;53.176;8.194;2022-08-07T02:16:41;13.20;99.90
18444;DHT22;9350;53.176;8.194;2022-08-07T02:19:10;13.20;99.90
18444;DHT22;9350;53.176;8.194;2022-08-07T02:21:41;13.10;99.90
18444;DHT22;9350;53.176;8.194;2022-08-07T02:24:09;13.20;99.90
18444;DHT22;9350;53.176;8.194;2022-08-07T02:26:38;13.20;99.90
18444;DHT22;9350;53.176;8.194;2022-08-07T02:29:07;13.20;99.90
18444;DHT22;9350;53.176;8.194;2022-08-07T02:31:39;13.10;99.90
18444;DHT22;9350;53.176;8.194;2022-08-07T02:34:07;13.10;99.90
18444;DHT22;9350;53.176;8.194;2022-08-07T02:36:36;13.10;99.90
18444;DHT22;9350;53.176;8.194;2022-08-07T02:39:06;13.10;99.90
18444;DHT22;9350;53.176;8.194;2022-08-07T02:41:34;13.10;99.90
18444;DHT22;9350;53.176;8.194;2022-08-07T02:44:02;13.10;99.90
18444;DHT22;9350;53.176;8.194;2022-08-07T02:46:32;13.10;99.90
18444;DHT22;9350;53.176;8.194;2022-08-07T02:49:02;13.00;99.90
18444;DHT22;9350;53.176;8.194;2022-08-07T02:51:32;12.80;99.90
18444;DHT22;9350;53.176;8.194;2022-08-07T02:54:02;13.00;99.90
18444;DHT22;9350;53.176;8.194;2022-08-07T02:56:31;13.00;99.90
18444;DHT22;9350;53.176;8.194;2022-08-07T02:59:03;13.00;99.90
18444;DHT22;9350;53.176;8.194;2022-08-07T03:01:31;12.90;99.90
18444;DHT22;9350;53.176;8.194;2022-08-07T03:04:00;12.90;99.90
18444;DHT22;9350;53.176;8.194;2022-08-07T03:06:28;12.90;99.90
18444;DHT22;9350;53.176;8.194;2022-08-07T03:08:56;12.90;99.90
18444;DHT22;9350;53.176;8.194;2022-08-07T03:11:25;12.90;99.90
18444;DHT22;9350;53.176;8.194;2022-08-07T03:14:10;13.10;99.90
18444;DHT22;9350;53.176;8.194;2022-08-07T03:16:49;13.40;99.90
18444;DHT22;9350;53.176;8.194;2022-08-07T03:19:18;12.90;99.90
18444;DHT22;9350;53.176;8.194;2022-08-07T03:21:45;12.80;99.90
18444;DHT22;9350;53.176;8.194;2022-08-07T03:24:12;12.80;99.90
18444;DHT22;9350;53.176;8.194;2022-08-07T03:26:53;12.10;99.90
18444;DHT22;9350;53.176;8.194;2022-08-07T03:29:27;12.80;99.90
18444;DHT22;9350;53.176;8.194;2022-08-07T03:31:55;12.80;99.90
18444;DHT22;9350;53.176;8.194;2022-08-07T03:34:26;12.90;99.90
18444;DHT22;9350;53.176;8.194;2022-08-07T03:36:54;13.50;99.90
18444;DHT22;9350;53.176;8.194;2022-08-07T03:39:45;12.70;99.90
18444;DHT22;9350;53.176;8.194;2022-08-07T03:59:55;12.70;99.90
18444;DHT22;9350;53.176;8.194;2022-08-07T04:02:23;12.60;99.90
18444;DHT22;9350;53.176;8.194;2022-08-07T04:04:50;12.60;99.90
18444;DHT22;9350;53.176;8.194;2022-08-07T04:07:17;12.60;99.90
18444;DHT22;9350;53.176;8.194;2022-08-07T04:09:44;12.60;99.90
18444;DHT22;9350;53.176;8.194;2022-08-07T04:12:12;12.60;99.90
18444;DHT22;9350;53.176;8.194;2022-08-07T04:14:39;12.50;99.90
18444;DHT22;9350;53.176;8.194;2022-08-07T04:17:08;12.60;99.90
18444;DHT22;9350;53.176;8.194;2022-08-07T04:19:35;12.60;99.90
18444;DHT22;9350;53.176;8.194;2022-08-07T04:22:05;12.60;99.90
18444;DHT22;9350;53.176;8.194;2022-08-07T04:24:32;12.60;99.90
18444;DHT22;9350;53.176;8.194;2022-08-07T04:26:59;12.60;99.90
18444;DHT22;9350;53.176;8.194;2022-08-07T04:29:27;12.50;99.90
18444;DHT22;9350;53.176;8.194;2022-08-07T04:31:54;12.60;99.90
18444;DHT22;9350;53.176;8.194;2022-08-07T04:34:23;12.60;99.90
18444;DHT22;9350;53.176;8.194;2022-08-07T04:36:50;12.60;99.90
18444;DHT22;9350;53.176;8.194;2022-08-07T04:39:17;12.70;99.90
18444;DHT22;9350;53.176;8.194;2022-08-07T04:41:44;12.70;99.90
18444;DHT22;9350;53.176;8.194;2022-08-07T04:44:10;12.70;99.90
18444;DHT22;9350;53.176;8.194;2022-08-07T04:46:40;12.70;99.90
18444;DHT22;9350;53.176;8.194;2022-08-07T04:49:13;12.70;99.90
18444;DHT22;9350;53.176;8.194;2022-08-07T04:51:50;12.80;99.90
18444;DHT22;9350;53.176;8.194;2022-08-07T04:54:31;12.80;99.90
18444;DHT22;9350;53.176;8.194;2022-08-07T04:57:03;12.80;99.90
18444;DHT22;9350;53.176;8.194;2022-08-07T04:59:38;12.90;99.90
18444;DHT22;9350;53.176;8.194;2022-08-07T05:02:09;13.00;99.90
18444;DHT22;9350;53.176;8.194;2022-08-07T05:04:40;13.00;99.90
18444;DHT22;9350;53.176;8.194;2022-08-07T05:07:16;13.00;99.90
18444;DHT22;9350;53.176;8.194;2022-08-07T05:09:54;13.00;99.90
18444;DHT22;9350;53.176;8.194;2022-08-07T05:12:27;13.10;99.90
18444;DHT22;9350;53.176;8.194;2022-08-07T05:15:01;13.20;99.90
18444;DHT22;9350;53.176;8.194;2022-08-07T05:17:41;13.20;99.90
18444;DHT22;9350;53.176;8.194;2022-08-07T05:20:10;13.30;99.90
18444;DHT22;9350;53.176;8.194;2022-08-07T05:22:42;13.30;99.90
18444;DHT22;9350;53.176;8.194;2022-08-07T05:25:10;13.40;99.90
18444;DHT22;9350;53.176;8.194;2022-08-07T05:27:42;13.40;99.90
18444;DHT22;9350;53.176;8.194;2022-08-07T05:30:10;13.40;99.90
18444;DHT22;9350;53.176;8.194;2022-08-07T05:32:37;13.50;99.90
18444;DHT22;9350;53.176;8.194;2022-08-07T05:35:06;13.60;99.90
18444;DHT22;9350;53.176;8.194;2022-08-07T05:37:34;13.60;99.90
18444;DHT22;9350;53.176;8.194;2022-08-07T05:40:03;13.70;99.90
18444;DHT22;9350;53.176;8.194;2022-08-07T05:42:30;13.70;99.90
18444;DHT22;9350;53.176;8.194;2022-08-07T05:44:58;13.70;99.90
18444;DHT22;9350;53.176;8.194;2022-08-07T05:47:26;13.80;99.90
18444;DHT22;9350;53.176;8.194;2022-08-07T05:49:53;13.90;99.90
18444;DHT22;9350;53.176;8.194;2022-08-07T05:52:21;13.90;99.90
18444;DHT22;9350;53.176;8.194;2022-08-07T05:54:47;14.00;99.90
18444;DHT22;9350;53.176;8.194;2022-08-07T05:57:16;14.10;99.90
18444;DHT22;9350;53.176;8.194;2022-08-07T05:59:43;14.20;99.90
18444;DHT22;9350;53.176;8.194;2022-08-07T06:02:13;14.20;99.90
18444;DHT22;9350;53.176;8.194;2022-08-07T06:04:44;14.40;99.90
18444;DHT22;9350;53.176;8.194;2022-08-07T06:07:12;14.40;99.90
18444;DHT22;9350;53.176;8.194;2022-08-07T06:09:39;14.50;99.90
18444;DHT22;9350;53.176;8.194;2022-08-07T06:12:07;14.50;99.90
18444;DHT22;9350;53.176;8.194;2022-08-07T06:14:35;14.60;99.90
18444;DHT22;9350;53.176;8.194;2022-08-07T06:17:03;14.60;99.90
18444;DHT22;9350;53.176;8.194;2022-08-07T06:19:29;14.70;99.90
18444;DHT22;9350;53.176;8.194;2022-08-07T06:21:57;14.80;99.90
18444;DHT22;9350;53.176;8.194;2022-08-07T06:24:23;14.80;99.90
18444;DHT22;9350;53.176;8.194;2022-08-07T06:26:50;14.90;99.90
18444;DHT22;9350;53.176;8.194;2022-08-07T06:29:17;14.90;99.90
18444;DHT22;9350;53.176;8.194;2022-08-07T06:31:45;15.00;99.90
18444;DHT22;9350;53.176;8.194;2022-08-07T06:34:12;15.00;99.90
18444;DHT22;9350;53.176;8.194;2022-08-07T06:36:38;15.10;99.90
18444;DHT22;9350;53.176;8.194;2022-08-07T06:39:05;15.10;99.90
18444;DHT22;9350;53.176;8.194;2022-08-07T06:41:36;15.20;99.90
18444;DHT22;9350;53.176;8.194;2022-08-07T06:44:05;15.20;99.90
18444;DHT22;9350;53.176;8.194;2022-08-07T06:46:32;15.30;99.90
18444;DHT22;9350;53.176;8.194;2022-08-07T06:49:00;15.30;99.90
18444;DHT22;9350;53.176;8.194;2022-08-07T06:51:28;15.40;99.90
18444;DHT22;9350;53.176;8.194;2022-08-07T06:53:57;15.50;99.90
18444;DHT22;9350;53.176;8.194;2022-08-07T06:56:28;15.50;99.90
18444;DHT22;9350;53.176;8.194;2022-08-07T06:59:14;15.50;99.90
18444;DHT22;9350;53.176;8.194;2022-08-07T07:01:42;15.60;99.90
18444;DHT22;9350;53.176;8.194;2022-08-07T07:04:11;15.60;99.90
18444;DHT22;9350;53.176;8.194;2022-08-07T07:06:38;15.70;99.90
18444;DHT22;9350;53.176;8.194;2022-08-07T07:09:19;15.70;99.90
18444;DHT22;9350;53.176;8.194;2022-08-07T07:11:57;15.80;99.90
18444;DHT22;9350;53.176;8.194;2022-08-07T07:14:28;15.80;99.90
18444;DHT22;9350;53.176;8.194;2022-08-07T07:16:58;15.80;99.90
18444;DHT22;9350;53.176;8.194;2022-08-07T07:19:33;15.90;99.90
18444;DHT22;9350;53.176;8.194;2022-08-07T07:22:01;16.00;99.90
18444;DHT22;9350;53.176;8.194;2022-08-07T07:24:29;16.00;99.90
18444;DHT22;9350;53.176;8.194;2022-08-07T07:26:58;16.10;99.90
18444;DHT22;9350;53.176;8.194;2022-08-07T07:29:29;16.10;99.90
18444;DHT22;9350;53.176;8.194;2022-08-07T07:32:02;16.10;99.90
18444;DHT22;9350;53.176;8.194;2022-08-07T07:34:32;16.20;99.90
18444;DHT22;9350;53.176;8.194;2022-08-07T07:37:02;16.30;99.90
18444;DHT22;9350;53.176;8.194;2022-08-07T07:39:30;16.40;99.90
18444;DHT22;9350;53.176;8.194;2022-08-07T07:41:59;16.40;99.90
18444;DHT22;9350;53.176;8.194;2022-08-07T07:44:28;16.40;99.90
18444;DHT22;9350;53.176;8.194;2022-08-07T07:46:58;16.40;99.90
18444;DHT22;9350;53.176;8.194;2022-08-07T07:49:26;16.40;99.90
18444;DHT22;9350;53.176;8.194;2022-08-07T07:51:56;16.60;99.90
18444;DHT22;9350;53.176;8.194;2022-08-07T07:54:23;16.60;99.90
18444;DHT22;9350;53.176;8.194;2022-08-07T07:56:52;16.70;99.90
18444;DHT22;9350;53.176;8.194;2022-08-07T07:59:20;16.70;99.90
18444;DHT22;9350;53.176;8.194;2022-08-07T08:01:47;16.80;99.90
18444;DHT22;9350;53.176;8.194;2022-08-07T08:04:15;16.90;99.90
18444;DHT22;9350;53.176;8.194;2022-08-07T08:06:44;16.90;99.90
18444;DHT22;9350;53.176;8.194;2022-08-07T08:09:15;16.90;99.90
18444;DHT22;9350;53.176;8.194;2022-08-07T08:11:44;17.00;99.90
18444;DHT22;9350;53.176;8.194;2022-08-07T08:14:11;17.10;99.90
18444;DHT22;9350;53.176;8.194;2022-08-07T08:16:41;17.10;99.90
18444;DHT22;9350;53.176;8.194;2022-08-07T08:19:11;17.10;99.90
18444;DHT22;9350;53.176;8.194;2022-08-07T08:21:39;17.10;99.90
18444;DHT22;9350;53.176;8.194;2022-08-07T08:24:28;17.20;99.90
18444;DHT22;9350;53.176;8.194;2022-08-07T08:27:32;17.30;99.90
18444;DHT22;9350;53.176;8.194;2022-08-07T08:30:02;17.30;99.90
18444;DHT22;9350;53.176;8.194;2022-08-07T08:32:31;17.40;99.90
18444;DHT22;9350;53.176;8.194;2022-08-07T08:35:00;17.40;99.90
18444;DHT22;9350;53.176;8.194;2022-08-07T08:37:29;17.40;99.90
18444;DHT22;9350;53.176;8.194;2022-08-07T08:39:58;17.50;99.90
18444;DHT22;9350;53.176;8.194;2022-08-07T08:42:31;17.60;99.90
18444;DHT22;9350;53.176;8.194;2022-08-07T08:45:04;17.60;99.90
18444;DHT22;9350;53.176;8.194;2022-08-07T08:47:42;17.60;99.90
18444;DHT22;9350;53.176;8.194;2022-08-07T08:50:16;17.60;99.90
18444;DHT22;9350;53.176;8.194;2022-08-07T08:52:50;17.70;99.90
18444;DHT22;9350;53.176;8.194;2022-08-07T08:55:24;17.70;99.90
18444;DHT22;9350;53.176;8.194;2022-08-07T08:58:00;17.70;99.90
18444;DHT22;9350;53.176;8.194;2022-08-07T09:00:34;17.80;99.90
18444;DHT22;9350;53.176;8.194;2022-08-07T09:03:10;17.80;99.90
18444;DHT22;9350;53.176;8.194;2022-08-07T09:05:45;17.90;99.90
18444;DHT22;9350;53.176;8.194;2022-08-07T09:08:28;17.90;99.90
18444;DHT22;9350;53.176;8.194;2022-08-07T09:11:05;17.90;99.90
18444;DHT22;9350;53.176;8.194;2022-08-07T09:13:42;18.00;99.90
18444;DHT22;9350;53.176;8.194;2022-08-07T09:16:19;18.10;99.90
18444;DHT22;9350;53.176;8.194;2022-08-07T09:19:00;18.10;99.90
18444;DHT22;9350;53.176;8.194;2022-08-07T09:21:33;18.30;99.90
18444;DHT22;9350;53.176;8.194;2022-08-07T09:24:08;18.30;99.90
18444;DHT22;9350;53.176;8.194;2022-08-07T09:26:47;18.40;99.90
18444;DHT22;9350;53.176;8.194;2022-08-07T09:29:23;18.30;99.90
18444;DHT22;9350;53.176;8.194;2022-08-07T09:31:58;18.30;99.90
18444;DHT22;9350;53.176;8.194;2022-08-07T09:34:39;18.30;99.90
18444;DHT22;9350;53.176;8.194;2022-08-07T09:37:16;18.30;99.90
18444;DHT22;9350;53.176;8.194;2022-08-07T09:39:50;18.20;99.90
18444;DHT22;9350;53.176;8.194;2022-08-07T09:42:33;18.40;99.90
18444;DHT22;9350;53.176;8.194;2022-08-07T09:45:09;18.40;99.90
18444;DHT22;9350;53.176;8.194;2022-08-07T09:47:45;18.40;99.90
18444;DHT22;9350;53.176;8.194;2022-08-07T09:53:06;18.50;99.90
18444;DHT22;9350;53.176;8.194;2022-08-07T09:55:50;18.50;99.90
18444;DHT22;9350;53.176;8.194;2022-08-07T09:58:42;18.50;99.90
18444;DHT22;9350;53.176;8.194;2022-08-07T10:01:29;18.60;99.90
18444;DHT22;9350;53.176;8.194;2022-08-07T10:04:13;18.70;99.90
18444;DHT22;9350;53.176;8.194;2022-08-07T10:07:04;18.70;99.90
18444;DHT22;9350;53.176;8.194;2022-08-07T10:09:55;18.70;99.90
18444;DHT22;9350;53.176;8.194;2022-08-07T10:12:40;18.80;99.90
18444;DHT22;9350;53.176;8.194;2022-08-07T10:15:29;18.80;99.90
18444;DHT22;9350;53.176;8.194;2022-08-07T10:18:10;18.90;99.90
18444;DHT22;9350;53.176;8.194;2022-08-07T10:20:48;18.90;99.90
18444;DHT22;9350;53.176;8.194;2022-08-07T10:23:44;19.00;99.90
18444;DHT22;9350;53.176;8.194;2022-08-07T10:26:27;19.00;99.90
18444;DHT22;9350;53.176;8.194;2022-08-07T10:29:06;19.10;99.90
18444;DHT22;9350;53.176;8.194;2022-08-07T10:31:49;19.10;99.90
18444;DHT22;9350;53.176;8.194;2022-08-07T10:34:29;19.10;99.90
18444;DHT22;9350;53.176;8.194;2022-08-07T10:37:17;19.00;99.90
18444;DHT22;9350;53.176;8.194;2022-08-07T10:39:57;19.00;99.90
18444;DHT22;9350;53.176;8.194;2022-08-07T10:42:31;19.10;99.90
18444;DHT22;9350;53.176;8.194;2022-08-07T10:45:06;19.00;99.90
18444;DHT22;9350;53.176;8.194;2022-08-07T10:47:48;19.00;99.90
18444;DHT22;9350;53.176;8.194;2022-08-07T10:50:21;18.90;99.90
18444;DHT22;9350;53.176;8.194;2022-08-07T10:52:57;18.90;99.90
18444;DHT22;9350;53.176;8.194;2022-08-07T10:55:28;19.00;99.90
18444;DHT22;9350;53.176;8.194;2022-08-07T10:58:04;19.00;99.90
18444;DHT22;9350;53.176;8.194;2022-08-07T11:00:44;19.10;99.90
18444;DHT22;9350;53.176;8.194;2022-08-07T11:03:16;19.20;99.90
18444;DHT22;9350;53.176;8.194;2022-08-07T11:05:53;19.20;99.90
18444;DHT22;9350;53.176;8.194;2022-08-07T11:08:31;19.20;99.90
18444;DHT22;9350;53.176;8.194;2022-08-07T11:11:04;19.20;99.90
18444;DHT22;9350;53.176;8.194;2022-08-07T11:13:35;19.10;99.90
18444;DHT22;9350;53.176;8.194;2022-08-07T11:16:07;19.00;99.90
18444;DHT22;9350;53.176;8.194;2022-08-07T11:18:38;19.00;99.90
18444;DHT22;9350;53.176;8.194;2022-08-07T11:21:13;19.10;99.90
18444;DHT22;9350;53.176;8.194;2022-08-07T11:23:47;19.10;99.90
18444;DHT22;9350;53.176;8.194;2022-08-07T11:26:20;19.10;99.90
18444;DHT22;9350;53.176;8.194;2022-08-07T11:28:55;19.20;99.90
18444;DHT22;9350;53.176;8.194;2022-08-07T11:31:28;19.20;99.90
18444;DHT22;9350;53.176;8.194;2022-08-07T11:34:04;19.30;99.90
18444;DHT22;9350;53.176;8.194;2022-08-07T11:36:46;19.40;99.90
18444;DHT22;9350;53.176;8.194;2022-08-07T11:39:24;19.50;99.90
18444;DHT22;9350;53.176;8.194;2022-08-07T11:42:02;19.60;99.90
18444;DHT22;9350;53.176;8.194;2022-08-07T11:44:46;19.70;99.90
18444;DHT22;9350;53.176;8.194;2022-08-07T11:47:24;19.70;99.90
18444;DHT22;9350;53.176;8.194;2022-08-07T11:50:15;19.80;99.90
18444;DHT22;9350;53.176;8.194;2022-08-07T11:52:54;19.80;99.90
18444;DHT22;9350;53.176;8.194;2022-08-07T11:55:43;19.90;99.90
18444;DHT22;9350;53.176;8.194;2022-08-07T11:58:18;19.90;99.90
18444;DHT22;9350;53.176;8.194;2022-08-07T12:00:54;19.90;99.90
18444;DHT22;9350;53.176;8.194;2022-08-07T12:03:43;19.90;99.90
18444;DHT22;9350;53.176;8.194;2022-08-07T12:06:27;19.90;99.90
18444;DHT22;9350;53.176;8.194;2022-08-07T12:09:03;19.90;99.90
18444;DHT22;9350;53.176;8.194;2022-08-07T12:11:37;20.10;99.90
18444;DHT22;9350;53.176;8.194;2022-08-07T12:14:09;20.10;99.90
18444;DHT22;9350;53.176;8.194;2022-08-07T12:16:43;20.10;99.90
18444;DHT22;9350;53.176;8.194;2022-08-07T12:19:17;20.20;99.90
18444;DHT22;9350;53.176;8.194;2022-08-07T12:21:51;20.10;99.90
18444;DHT22;9350;53.176;8.194;2022-08-07T12:24:26;20.20;99.90
18444;DHT22;9350;53.176;8.194;2022-08-07T12:27:01;20.30;99.90
18444;DHT22;9350;53.176;8.194;2022-08-07T12:29:33;20.30;99.90
18444;DHT22;9350;53.176;8.194;2022-08-07T12:32:07;20.20;99.90
18444;DHT22;9350;53.176;8.194;2022-08-07T12:34:37;20.30;99.90
18444;DHT22;9350;53.176;8.194;2022-08-07T12:37:07;20.30;99.90
18444;DHT22;9350;53.176;8.194;2022-08-07T12:39:36;20.30;99.90
18444;DHT22;9350;53.176;8.194;2022-08-07T12:42:06;20.30;99.90
18444;DHT22;9350;53.176;8.194;2022-08-07T12:44:37;20.30;99.90
18444;DHT22;9350;53.176;8.194;2022-08-07T12:47:11;20.40;99.90
18444;DHT22;9350;53.176;8.194;2022-08-07T12:49:47;20.40;99.90
18444;DHT22;9350;53.176;8.194;2022-08-07T12:52:21;20.50;99.90
18444;DHT22;9350;53.176;8.194;2022-08-07T12:54:58;20.50;99.90
18444;DHT22;9350;53.176;8.194;2022-08-07T12:57:30;20.50;99.90
18444;DHT22;9350;53.176;8.194;2022-08-07T12:59:58;20.40;99.90
18444;DHT22;9350;53.176;8.194;2022-08-07T13:02:45;20.40;99.90
18444;DHT22;9350;53.176;8.194;2022-08-07T13:05:24;20.30;99.90
18444;DHT22;9350;53.176;8.194;2022-08-07T13:08:26;20.30;99.90
18444;DHT22;9350;53.176;8.194;2022-08-07T13:11:05;20.30;99.90
18444;DHT22;9350;53.176;8.194;2022-08-07T13:13:42;20.20;99.90
18444;DHT22;9350;53.176;8.194;2022-08-07T13:16:14;20.10;99.90
18444;DHT22;9350;53.176;8.194;2022-08-07T13:18:49;20.20;99.90
18444;DHT22;9350;53.176;8.194;2022-08-07T13:21:23;20.20;99.90
18444;DHT22;9350;53.176;8.194;2022-08-07T13:23:57;20.20;99.90
18444;DHT22;9350;53.176;8.194;2022-08-07T13:26:32;20.20;99.90
18444;DHT22;9350;53.176;8.194;2022-08-07T13:29:08;20.20;99.90
18444;DHT22;9350;53.176;8.194;2022-08-07T13:31:40;20.20;99.90
18444;DHT22;9350;53.176;8.194;2022-08-07T13:34:14;20.30;99.90
18444;DHT22;9350;53.176;8.194;2022-08-07T13:36:44;20.40;99.90
18444;DHT22;9350;53.176;8.194;2022-08-07T13:39:25;20.40;99.90
18444;DHT22;9350;53.176;8.194;2022-08-07T13:41:55;20.50;99.90
18444;DHT22;9350;53.176;8.194;2022-08-07T13:44:25;20.60;99.90
18444;DHT22;9350;53.176;8.194;2022-08-07T13:46:57;20.60;99.90
18444;DHT22;9350;53.176;8.194;2022-08-07T13:49:27;20.70;99.90
18444;DHT22;9350;53.176;8.194;2022-08-07T13:52:02;20.70;99.90
18444;DHT22;9350;53.176;8.194;2022-08-07T13:54:32;20.70;99.90
18444;DHT22;9350;53.176;8.194;2022-08-07T13:57:02;20.70;99.90
18444;DHT22;9350;53.176;8.194;2022-08-07T13:59:34;20.70;99.90
18444;DHT22;9350;53.176;8.194;2022-08-07T14:02:05;20.90;99.90
18444;DHT22;9350;53.176;8.194;2022-08-07T14:04:43;20.90;99.90
18444;DHT22;9350;53.176;8.194;2022-08-07T14:07:11;20.90;99.90
18444;DHT22;9350;53.176;8.194;2022-08-07T14:09:40;20.90;99.90
18444;DHT22;9350;53.176;8.194;2022-08-07T14:12:12;21.10;99.90
18444;DHT22;9350;53.176;8.194;2022-08-07T14:14:45;21.10;99.90
18444;DHT22;9350;53.176;8.194;2022-08-07T14:17:14;21.20;99.90
18444;DHT22;9350;53.176;8.194;2022-08-07T14:19:46;21.20;99.90
18444;DHT22;9350;53.176;8.194;2022-08-07T14:22:17;21.20;99.90
18444;DHT22;9350;53.176;8.194;2022-08-07T14:24:50;21.20;99.90
18444;DHT22;9350;53.176;8.194;2022-08-07T14:27:26;21.30;99.90
18444;DHT22;9350;53.176;8.194;2022-08-07T14:29:57;21.30;99.90
18444;DHT22;9350;53.176;8.194;2022-08-07T14:32:27;21.30;99.90
18444;DHT22;9350;53.176;8.194;2022-08-07T14:34:54;21.30;99.90
18444;DHT22;9350;53.176;8.194;2022-08-07T14:37:24;21.30;99.90
18444;DHT22;9350;53.176;8.194;2022-08-07T14:39:52;21.20;99.90
18444;DHT22;9350;53.176;8.194;2022-08-07T14:42:24;21.30;99.90
18444;DHT22;9350;53.176;8.194;2022-08-07T14:44:54;21.40;99.90
18444;DHT22;9350;53.176;8.194;2022-08-07T14:47:24;21.40;99.90
18444;DHT22;9350;53.176;8.194;2022-08-07T14:49:52;21.50;99.90
18444;DHT22;9350;53.176;8.194;2022-08-07T14:52:20;21.50;99.90
18444;DHT22;9350;53.176;8.194;2022-08-07T14:54:51;21.40;99.90
18444;DHT22;9350;53.176;8.194;2022-08-07T14:57:19;21.50;99.90
18444;DHT22;9350;53.176;8.194;2022-08-07T14:59:50;21.50;99.90
18444;DHT22;9350;53.176;8.194;2022-08-07T15:02:21;21.60;99.90
18444;DHT22;9350;53.176;8.194;2022-08-07T15:04:49;21.70;99.90
18444;DHT22;9350;53.176;8.194;2022-08-07T15:07:19;21.80;99.90
18444;DHT22;9350;53.176;8.194;2022-08-07T15:09:47;22.00;99.90
18444;DHT22;9350;53.176;8.194;2022-08-07T15:12:20;22.00;99.90
18444;DHT22;9350;53.176;8.194;2022-08-07T15:14:49;22.00;99.90
18444;DHT22;9350;53.176;8.194;2022-08-07T15:17:18;22.10;99.90
18444;DHT22;9350;53.176;8.194;2022-08-07T15:19:50;22.00;99.90
18444;DHT22;9350;53.176;8.194;2022-08-07T15:22:22;22.00;99.90
18444;DHT22;9350;53.176;8.194;2022-08-07T15:24:51;22.00;99.90
18444;DHT22;9350;53.176;8.194;2022-08-07T15:27:22;22.10;99.90
18444;DHT22;9350;53.176;8.194;2022-08-07T15:29:51;22.10;99.90
18444;DHT22;9350;53.176;8.194;2022-08-07T15:32:19;22.20;99.90
18444;DHT22;9350;53.176;8.194;2022-08-07T15:34:48;22.20;99.90
18444;DHT22;9350;53.176;8.194;2022-08-07T15:37:18;22.20;99.90
18444;DHT22;9350;53.176;8.194;2022-08-07T15:39:49;22.10;99.90
18444;DHT22;9350;53.176;8.194;2022-08-07T15:42:37;22.00;99.90
18444;DHT22;9350;53.176;8.194;2022-08-07T15:45:13;21.90;99.90
18444;DHT22;9350;53.176;8.194;2022-08-07T15:47:43;21.80;99.90
18444;DHT22;9350;53.176;8.194;2022-08-07T15:50:14;21.80;99.90
18444;DHT22;9350;53.176;8.194;2022-08-07T15:52:43;21.80;99.90
18444;DHT22;9350;53.176;8.194;2022-08-07T15:55:14;21.80;99.90
18444;DHT22;9350;53.176;8.194;2022-08-07T15:57:50;21.80;99.90
18444;DHT22;9350;53.176;8.194;2022-08-07T16:00:19;21.70;99.90
18444;DHT22;9350;53.176;8.194;2022-08-07T16:02:46;21.70;99.90
18444;DHT22;9350;53.176;8.194;2022-08-07T16:05:17;21.60;99.90
18444;DHT22;9350;53.176;8.194;2022-08-07T16:07:47;21.60;99.90
18444;DHT22;9350;53.176;8.194;2022-08-07T16:10:16;21.70;99.90
18444;DHT22;9350;53.176;8.194;2022-08-07T16:12:56;21.70;99.90
18444;DHT22;9350;53.176;8.194;2022-08-07T16:15:35;21.70;99.90
18444;DHT22;9350;53.176;8.194;2022-08-07T16:18:08;21.70;99.90
18444;DHT22;9350;53.176;8.194;2022-08-07T16:20:44;21.60;99.90
18444;DHT22;9350;53.176;8.194;2022-08-07T16:23:22;21.60;99.90
18444;DHT22;9350;53.176;8.194;2022-08-07T16:26:01;21.60;99.90
18444;DHT22;9350;53.176;8.194;2022-08-07T16:28:55;21.60;99.90
18444;DHT22;9350;53.176;8.194;2022-08-07T16:31:39;21.50;99.90
18444;DHT22;9350;53.176;8.194;2022-08-07T16:34:14;21.50;99.90
18444;DHT22;9350;53.176;8.194;2022-08-07T16:36:53;21.50;99.90
18444;DHT22;9350;53.176;8.194;2022-08-07T16:39:53;21.50;99.90
18444;DHT22;9350;53.176;8.194;2022-08-07T16:42:34;21.50;99.90
18444;DHT22;9350;53.176;8.194;2022-08-07T16:45:44;21.50;99.90
18444;DHT22;9350;53.176;8.194;2022-08-07T16:48:37;21.50;99.90
18444;DHT22;9350;53.176;8.194;2022-08-07T16:51:16;21.50;99.90
18444;DHT22;9350;53.176;8.194;2022-08-07T16:53:59;21.50;99.90
18444;DHT22;9350;53.176;8.194;2022-08-07T16:56:35;21.50;99.90
18444;DHT22;9350;53.176;8.194;2022-08-07T16:59:18;21.50;99.90
18444;DHT22;9350;53.176;8.194;2022-08-07T17:01:59;21.40;99.90
18444;DHT22;9350;53.176;8.194;2022-08-07T17:04:35;21.40;99.90
18444;DHT22;9350;53.176;8.194;2022-08-07T17:07:08;21.30;99.90
18444;DHT22;9350;53.176;8.194;2022-08-07T17:09:47;21.30;99.90
18444;DHT22;9350;53.176;8.194;2022-08-07T17:12:18;21.20;99.90
18444;DHT22;9350;53.176;8.194;2022-08-07T17:14:49;21.20;99.90